sensor_id;sensor_type;location;lat;lon;timestamp;temperature;humidity
15133;DHT22;7667;51.232;17.110;2023-05-02T00:00:01;9.30;99.90
15133;DHT22;7667;51.232;17.110;2023-05-02T00:02:30;9.20;99.90
15133;DHT22;7667;51.232;17.110;2023-05-02T00:04:57;9.10;99.90
15133;DHT22;7667;51.232;17.110;2023-05-02T00:07:25;9.10;99.90
15133;DHT22;7667;51.232;17.110;2023-05-02T00:09:53;9.00;99.90
15133;DHT22;7667;51.232;17.110;2023-05-02T00:12:20;8.90;99.90
15133;DHT22;7667;51.232;17.110;2023-05-02T00:14:49;8.90;99.90
15133;DHT22;7667;51.232;17.110;2023-05-02T00:17:17;8.90;99.90
15133;DHT22;7667;51.232;17.110;2023-05-02T00:19:46;8.90;99.90
15133;DHT22;7667;51.232;17.110;2023-05-02T00:22:14;8.90;99.90
15133;DHT22;7667;51.232;17.110;2023-05-02T00:24:41;8.90;99.90
15133;DHT22;7667;51.232;17.110;2023-05-02T00:27:09;9.00;99.90
15133;DHT22;7667;51.232;17.110;2023-05-02T00:33:37;9.20;99.90
15133;DHT22;7667;51.232;17.110;2023-05-02T00:36:11;9.30;99.90
15133;DHT22;7667;51.232;17.110;2023-05-02T00:38:48;9.40;99.90
15133;DHT22;7667;51.232;17.110;2023-05-02T00:41:16;9.50;99.90
15133;DHT22;7667;51.232;17.110;2023-05-02T00:43:44;9.60;99.90
15133;DHT22;7667;51.232;17.110;2023-05-02T00:46:11;9.60;99.90
15133;DHT22;7667;51.232;17.110;2023-05-02T00:48:39;9.80;99.90
15133;DHT22;7667;51.232;17.110;2023-05-02T00:51:07;9.80;99.90
15133;DHT22;7667;51.232;17.110;2023-05-02T00:53:39;9.80;99.90
15133;DHT22;7667;51.232;17.110;2023-05-02T00:56:07;9.80;99.90
15133;DHT22;7667;51.232;17.110;2023-05-02T00:58:37;9.70;99.90
15133;DHT22;7667;51.232;17.110;2023-05-02T01:12:44;9.70;99.90
15133;DHT22;7667;51.232;17.110;2023-05-02T01:15:18;9.70;99.90
15133;DHT22;7667;51.232;17.110;2023-05-02T01:17:47;9.80;99.90
15133;DHT22;7667;51.232;17.110;2023-05-02T01:20:20;9.90;99.90
15133;DHT22;7667;51.232;17.110;2023-05-02T01:22:50;9.90;99.90
15133;DHT22;7667;51.232;17.110;2023-05-02T01:31:08;9.90;99.90
15133;DHT22;7667;51.232;17.110;2023-05-02T01:33:37;9.90;99.90
15133;DHT22;7667;51.232;17.110;2023-05-02T01:36:06;9.90;99.90
15133;DHT22;7667;51.232;17.110;2023-05-02T01:38:36;9.90;99.90
15133;DHT22;7667;51.232;17.110;2023-05-02T01:41:06;9.90;99.90
15133;DHT22;7667;51.232;17.110;2023-05-02T01:43:34;9.80;99.90
15133;DHT22;7667;51.232;17.110;2023-05-02T01:46:05;9.80;99.90
15133;DHT22;7667;51.232;17.110;2023-05-02T01:48:34;9.70;99.90
15133;DHT22;7667;51.232;17.110;2023-05-02T01:51:04;9.70;99.90
15133;DHT22;7667;51.232;17.110;2023-05-02T01:53:34;9.70;99.90
15133;DHT22;7667;51.232;17.110;2023-05-02T01:56:02;9.80;99.90
15133;DHT22;7667;51.232;17.110;2023-05-02T01:58:32;9.80;99.90
15133;DHT22;7667;51.232;17.110;2023-05-02T02:01:01;9.90;99.90
15133;DHT22;7667;51.232;17.110;2023-05-02T02:03:31;9.90;99.90
15133;DHT22;7667;51.232;17.110;2023-05-02T02:06:00;9.90;99.90
15133;DHT22;7667;51.232;17.110;2023-05-02T02:08:29;10.00;99.90
15133;DHT22;7667;51.232;17.110;2023-05-02T02:10:59;10.00;99.90
15133;DHT22;7667;51.232;17.110;2023-05-02T02:13:36;10.00;99.90
15133;DHT22;7667;51.232;17.110;2023-05-02T02:16:10;9.90;99.90
15133;DHT22;7667;51.232;17.110;2023-05-02T02:18:39;9.90;99.90
15133;DHT22;7667;51.232;17.110;2023-05-02T02:21:08;9.90;99.90
15133;DHT22;7667;51.232;17.110;2023-05-02T02:23:38;9.90;99.90
15133;DHT22;7667;51.232;17.110;2023-05-02T02:26:07;9.90;99.90
15133;DHT22;7667;51.232;17.110;2023-05-02T02:28:35;9.80;99.90
15133;DHT22;7667;51.232;17.110;2023-05-02T02:31:03;9.80;99.90
15133;DHT22;7667;51.232;17.110;2023-05-02T02:33:31;9.80;99.90
15133;DHT22;7667;51.232;17.110;2023-05-02T02:36:30;9.80;99.90
15133;DHT22;7667;51.232;17.110;2023-05-02T02:42:07;9.80;99.90
15133;DHT22;7667;51.232;17.110;2023-05-02T02:44:46;9.80;99.90
15133;DHT22;7667;51.232;17.110;2023-05-02T02:48:07;9.80;99.90
15133;DHT22;7667;51.232;17.110;2023-05-02T02:50:46;9.70;99.90
15133;DHT22;7667;51.232;17.110;2023-05-02T02:56:21;9.80;99.90
15133;DHT22;7667;51.232;17.110;2023-05-02T02:58:59;9.80;99.90
15133;DHT22;7667;51.232;17.110;2023-05-02T03:01:35;9.90;99.90
15133;DHT22;7667;51.232;17.110;2023-05-02T03:04:07;10.00;99.90
15133;DHT22;7667;51.232;17.110;2023-05-02T03:06:36;10.00;99.90
15133;DHT22;7667;51.232;17.110;2023-05-02T03:09:03;10.00;99.90
15133;DHT22;7667;51.232;17.110;2023-05-02T03:11:31;10.00;99.90
15133;DHT22;7667;51.232;17.110;2023-05-02T03:13:59;10.00;99.90
15133;DHT22;7667;51.232;17.110;2023-05-02T03:16:33;10.00;99.90
15133;DHT22;7667;51.232;17.110;2023-05-02T03:19:07;10.00;99.90
15133;DHT22;7667;51.232;17.110;2023-05-02T03:21:35;10.00;99.90
15133;DHT22;7667;51.232;17.110;2023-05-02T03:24:03;10.00;99.90
15133;DHT22;7667;51.232;17.110;2023-05-02T03:26:31;10.00;99.90
15133;DHT22;7667;51.232;17.110;2023-05-02T03:28:58;9.90;99.90
15133;DHT22;7667;51.232;17.110;2023-05-02T03:31:26;9.80;99.90
15133;DHT22;7667;51.232;17.110;2023-05-02T03:33:53;9.90;99.90
15133;DHT22;7667;51.232;17.110;2023-05-02T03:36:21;9.90;99.90
15133;DHT22;7667;51.232;17.110;2023-05-02T03:38:49;9.90;99.90
15133;DHT22;7667;51.232;17.110;2023-05-02T03:41:16;10.10;99.90
15133;DHT22;7667;51.232;17.110;2023-05-02T03:43:44;10.10;99.90
15133;DHT22;7667;51.232;17.110;2023-05-02T03:46:12;10.10;99.90
15133;DHT22;7667;51.232;17.110;2023-05-02T03:48:39;10.10;99.90
15133;DHT22;7667;51.232;17.110;2023-05-02T03:51:07;10.20;99.90
15133;DHT22;7667;51.232;17.110;2023-05-02T03:53:35;10.30;99.90
15133;DHT22;7667;51.232;17.110;2023-05-02T03:56:03;10.50;99.90
15133;DHT22;7667;51.232;17.110;2023-05-02T03:58:34;10.70;99.90
15133;DHT22;7667;51.232;17.110;2023-05-02T04:01:12;10.80;99.90
15133;DHT22;7667;51.232;17.110;2023-05-02T04:03:41;10.90;99.90
15133;DHT22;7667;51.232;17.110;2023-05-02T04:06:09;11.10;99.90
15133;DHT22;7667;51.232;17.110;2023-05-02T04:08:39;11.10;99.90
15133;DHT22;7667;51.232;17.110;2023-05-02T04:11:06;11.20;99.90
15133;DHT22;7667;51.232;17.110;2023-05-02T04:13:34;11.20;99.90
15133;DHT22;7667;51.232;17.110;2023-05-02T04:16:01;11.30;99.90
15133;DHT22;7667;51.232;17.110;2023-05-02T04:18:30;11.20;99.90
15133;DHT22;7667;51.232;17.110;2023-05-02T04:20:58;11.20;99.90
15133;DHT22;7667;51.232;17.110;2023-05-02T04:23:25;11.20;99.90
15133;DHT22;7667;51.232;17.110;2023-05-02T04:25:53;11.20;99.90
15133;DHT22;7667;51.232;17.110;2023-05-02T04:28:22;11.20;99.90
15133;DHT22;7667;51.232;17.110;2023-05-02T04:30:50;11.20;99.90
15133;DHT22;7667;51.232;17.110;2023-05-02T04:33:17;11.20;99.90
15133;DHT22;7667;51.232;17.110;2023-05-02T04:35:45;11.20;99.90
15133;DHT22;7667;51.232;17.110;2023-05-02T04:38:13;11.10;99.90
15133;DHT22;7667;51.232;17.110;2023-05-02T04:40:41;11.20;99.90
15133;DHT22;7667;51.232;17.110;2023-05-02T04:43:09;11.20;99.90
15133;DHT22;7667;51.232;17.110;2023-05-02T04:45:36;11.10;99.90
15133;DHT22;7667;51.232;17.110;2023-05-02T04:48:04;11.10;99.90
15133;DHT22;7667;51.232;17.110;2023-05-02T04:50:32;11.10;99.90
15133;DHT22;7667;51.232;17.110;2023-05-02T04:52:59;11.10;99.90
15133;DHT22;7667;51.232;17.110;2023-05-02T04:55:27;11.10;99.90
15133;DHT22;7667;51.232;17.110;2023-05-02T04:57:54;11.10;99.90
15133;DHT22;7667;51.232;17.110;2023-05-02T05:00:22;11.10;99.90
15133;DHT22;7667;51.232;17.110;2023-05-02T05:02:50;11.10;99.90
15133;DHT22;7667;51.232;17.110;2023-05-02T05:05:17;11.00;99.90
15133;DHT22;7667;51.232;17.110;2023-05-02T05:07:45;10.90;99.90
15133;DHT22;7667;51.232;17.110;2023-05-02T05:10:12;10.80;99.90
15133;DHT22;7667;51.232;17.110;2023-05-02T05:12:40;10.70;99.90
15133;DHT22;7667;51.232;17.110;2023-05-02T05:15:08;10.60;99.90
15133;DHT22;7667;51.232;17.110;2023-05-02T05:17:36;10.60;99.90
15133;DHT22;7667;51.232;17.110;2023-05-02T05:20:04;10.50;99.90
15133;DHT22;7667;51.232;17.110;2023-05-02T05:22:38;10.50;99.90
15133;DHT22;7667;51.232;17.110;2023-05-02T05:25:08;10.50;99.90
15133;DHT22;7667;51.232;17.110;2023-05-02T05:27:36;10.60;99.90
15133;DHT22;7667;51.232;17.110;2023-05-02T05:30:04;10.60;99.90
15133;DHT22;7667;51.232;17.110;2023-05-02T05:32:32;10.70;99.90
15133;DHT22;7667;51.232;17.110;2023-05-02T05:35:00;10.90;99.90
15133;DHT22;7667;51.232;17.110;2023-05-02T05:37:28;10.90;99.90
15133;DHT22;7667;51.232;17.110;2023-05-02T05:39:55;11.00;99.90
15133;DHT22;7667;51.232;17.110;2023-05-02T05:42:23;11.00;99.90
15133;DHT22;7667;51.232;17.110;2023-05-02T05:44:51;11.00;99.90
15133;DHT22;7667;51.232;17.110;2023-05-02T05:47:19;10.90;99.90
15133;DHT22;7667;51.232;17.110;2023-05-02T05:49:54;11.00;99.90
15133;DHT22;7667;51.232;17.110;2023-05-02T05:52:22;11.00;99.90
15133;DHT22;7667;51.232;17.110;2023-05-02T05:54:53;11.00;99.90
15133;DHT22;7667;51.232;17.110;2023-05-02T05:57:21;11.20;99.90
15133;DHT22;7667;51.232;17.110;2023-05-02T05:59:49;11.30;99.90
15133;DHT22;7667;51.232;17.110;2023-05-02T06:02:17;11.40;99.90
15133;DHT22;7667;51.232;17.110;2023-05-02T06:04:45;11.50;99.90
15133;DHT22;7667;51.232;17.110;2023-05-02T06:07:13;11.50;99.90
15133;DHT22;7667;51.232;17.110;2023-05-02T06:09:40;11.50;99.90
15133;DHT22;7667;51.232;17.110;2023-05-02T06:12:08;11.60;99.90
15133;DHT22;7667;51.232;17.110;2023-05-02T06:14:35;11.80;99.90
15133;DHT22;7667;51.232;17.110;2023-05-02T06:17:03;12.00;99.90
15133;DHT22;7667;51.232;17.110;2023-05-02T06:19:31;12.20;99.90
15133;DHT22;7667;51.232;17.110;2023-05-02T06:21:58;12.30;99.90
15133;DHT22;7667;51.232;17.110;2023-05-02T06:24:26;12.40;99.90
15133;DHT22;7667;51.232;17.110;2023-05-02T06:26:53;12.50;99.90
15133;DHT22;7667;51.232;17.110;2023-05-02T06:29:21;12.40;99.90
15133;DHT22;7667;51.232;17.110;2023-05-02T06:31:48;12.60;99.90
15133;DHT22;7667;51.232;17.110;2023-05-02T06:34:17;12.60;99.90
15133;DHT22;7667;51.232;17.110;2023-05-02T06:36:44;12.60;99.90
15133;DHT22;7667;51.232;17.110;2023-05-02T06:39:12;12.70;99.90
15133;DHT22;7667;51.232;17.110;2023-05-02T06:41:39;13.00;99.90
15133;DHT22;7667;51.232;17.110;2023-05-02T06:44:07;12.90;99.90
15133;DHT22;7667;51.232;17.110;2023-05-02T06:46:35;13.00;99.90
15133;DHT22;7667;51.232;17.110;2023-05-02T06:49:02;13.00;99.90
15133;DHT22;7667;51.232;17.110;2023-05-02T06:51:30;13.10;99.90
15133;DHT22;7667;51.232;17.110;2023-05-02T06:53:58;13.10;99.90
15133;DHT22;7667;51.232;17.110;2023-05-02T06:56:25;13.10;99.90
15133;DHT22;7667;51.232;17.110;2023-05-02T06:58:53;13.30;99.90
15133;DHT22;7667;51.232;17.110;2023-05-02T07:01:21;13.40;99.90
15133;DHT22;7667;51.232;17.110;2023-05-02T07:03:48;13.50;99.90
15133;DHT22;7667;51.232;17.110;2023-05-02T07:06:16;13.60;99.90
15133;DHT22;7667;51.232;17.110;2023-05-02T07:08:43;13.80;99.90
15133;DHT22;7667;51.232;17.110;2023-05-02T07:11:11;13.80;99.90
15133;DHT22;7667;51.232;17.110;2023-05-02T07:13:38;14.10;99.90
15133;DHT22;7667;51.232;17.110;2023-05-02T07:16:06;14.30;99.90
15133;DHT22;7667;51.232;17.110;2023-05-02T07:18:34;14.30;99.90
15133;DHT22;7667;51.232;17.110;2023-05-02T07:21:02;14.60;99.90
15133;DHT22;7667;51.232;17.110;2023-05-02T07:23:30;14.70;99.90
15133;DHT22;7667;51.232;17.110;2023-05-02T07:25:57;14.70;99.90
15133;DHT22;7667;51.232;17.110;2023-05-02T07:28:25;14.90;99.90
15133;DHT22;7667;51.232;17.110;2023-05-02T07:30:52;15.10;99.90
15133;DHT22;7667;51.232;17.110;2023-05-02T07:33:20;14.90;99.90
15133;DHT22;7667;51.232;17.110;2023-05-02T07:35:48;14.80;99.90
15133;DHT22;7667;51.232;17.110;2023-05-02T07:38:16;15.00;99.90
15133;DHT22;7667;51.232;17.110;2023-05-02T07:40:43;15.10;99.90
15133;DHT22;7667;51.232;17.110;2023-05-02T07:43:13;15.40;99.90
15133;DHT22;7667;51.232;17.110;2023-05-02T07:45:42;15.20;99.90
15133;DHT22;7667;51.232;17.110;2023-05-02T07:48:09;15.30;99.90
15133;DHT22;7667;51.232;17.110;2023-05-02T07:50:37;15.10;99.90
15133;DHT22;7667;51.232;17.110;2023-05-02T07:53:04;15.40;99.90
15133;DHT22;7667;51.232;17.110;2023-05-02T07:55:32;15.50;99.90
15133;DHT22;7667;51.232;17.110;2023-05-02T07:57:59;15.30;99.90
15133;DHT22;7667;51.232;17.110;2023-05-02T08:00:27;15.20;99.90
15133;DHT22;7667;51.232;17.110;2023-05-02T08:02:54;15.20;99.90
15133;DHT22;7667;51.232;17.110;2023-05-02T08:05:22;15.20;99.90
15133;DHT22;7667;51.232;17.110;2023-05-02T08:07:50;15.50;99.90
15133;DHT22;7667;51.232;17.110;2023-05-02T08:10:18;16.00;99.90
15133;DHT22;7667;51.232;17.110;2023-05-02T08:12:45;16.50;99.90
15133;DHT22;7667;51.232;17.110;2023-05-02T08:15:13;16.80;99.90
15133;DHT22;7667;51.232;17.110;2023-05-02T08:17:40;16.80;99.90
15133;DHT22;7667;51.232;17.110;2023-05-02T08:20:08;16.20;99.90
15133;DHT22;7667;51.232;17.110;2023-05-02T08:22:36;16.00;99.90
15133;DHT22;7667;51.232;17.110;2023-05-02T08:25:04;16.20;99.90
15133;DHT22;7667;51.232;17.110;2023-05-02T08:27:31;16.80;99.90
15133;DHT22;7667;51.232;17.110;2023-05-02T08:30:01;16.90;99.90
15133;DHT22;7667;51.232;17.110;2023-05-02T08:32:31;16.70;99.90
15133;DHT22;7667;51.232;17.110;2023-05-02T08:34:58;16.90;99.90
15133;DHT22;7667;51.232;17.110;2023-05-02T08:37:26;16.70;99.90
15133;DHT22;7667;51.232;17.110;2023-05-02T08:39:53;16.90;99.90
15133;DHT22;7667;51.232;17.110;2023-05-02T08:42:21;16.90;99.90
15133;DHT22;7667;51.232;17.110;2023-05-02T08:44:50;17.20;99.90
15133;DHT22;7667;51.232;17.110;2023-05-02T08:47:18;17.20;99.90
15133;DHT22;7667;51.232;17.110;2023-05-02T08:49:47;16.50;99.90
15133;DHT22;7667;51.232;17.110;2023-05-02T08:52:19;16.30;99.90
15133;DHT22;7667;51.232;17.110;2023-05-02T08:54:47;16.60;99.90
15133;DHT22;7667;51.232;17.110;2023-05-02T08:57:17;17.00;99.90
15133;DHT22;7667;51.232;17.110;2023-05-02T08:59:45;16.90;99.90
15133;DHT22;7667;51.232;17.110;2023-05-02T09:05:18;16.90;99.90
15133;DHT22;7667;51.232;17.110;2023-05-02T09:07:50;16.50;99.90
15133;DHT22;7667;51.232;17.110;2023-05-02T09:10:18;16.40;99.90
15133;DHT22;7667;51.232;17.110;2023-05-02T09:12:46;16.60;99.90
15133;DHT22;7667;51.232;17.110;2023-05-02T09:15:15;16.40;99.90
15133;DHT22;7667;51.232;17.110;2023-05-02T09:17:47;16.50;99.90
15133;DHT22;7667;51.232;17.110;2023-05-02T09:20:15;16.60;99.90
15133;DHT22;7667;51.232;17.110;2023-05-02T09:22:51;16.60;99.90
15133;DHT22;7667;51.232;17.110;2023-05-02T09:25:19;16.60;99.90
15133;DHT22;7667;51.232;17.110;2023-05-02T09:27:54;16.80;99.90
15133;DHT22;7667;51.232;17.110;2023-05-02T09:30:24;16.60;99.90
15133;DHT22;7667;51.232;17.110;2023-05-02T09:32:52;16.80;99.90
15133;DHT22;7667;51.232;17.110;2023-05-02T09:35:22;16.80;99.90
15133;DHT22;7667;51.232;17.110;2023-05-02T09:37:57;16.80;99.90
15133;DHT22;7667;51.232;17.110;2023-05-02T09:40:24;16.90;99.90
15133;DHT22;7667;51.232;17.110;2023-05-02T09:42:53;17.00;99.90
15133;DHT22;7667;51.232;17.110;2023-05-02T09:45:25;17.20;99.90
15133;DHT22;7667;51.232;17.110;2023-05-02T09:47:53;17.30;99.90
15133;DHT22;7667;51.232;17.110;2023-05-02T09:50:36;16.80;99.90
15133;DHT22;7667;51.232;17.110;2023-05-02T09:53:06;16.70;99.90
15133;DHT22;7667;51.232;17.110;2023-05-02T09:55:35;16.60;99.90
15133;DHT22;7667;51.232;17.110;2023-05-02T09:58:03;16.60;99.90
15133;DHT22;7667;51.232;17.110;2023-05-02T10:00:42;16.50;99.90
15133;DHT22;7667;51.232;17.110;2023-05-02T10:03:11;16.70;99.90
15133;DHT22;7667;51.232;17.110;2023-05-02T10:05:44;16.60;99.90
15133;DHT22;7667;51.232;17.110;2023-05-02T10:08:13;16.90;99.90
15133;DHT22;7667;51.232;17.110;2023-05-02T10:10:52;17.40;99.90
15133;DHT22;7667;51.232;17.110;2023-05-02T10:13:22;17.60;99.90
15133;DHT22;7667;51.232;17.110;2023-05-02T10:16:05;17.70;99.90
15133;DHT22;7667;51.232;17.110;2023-05-02T10:19:02;17.00;99.90
15133;DHT22;7667;51.232;17.110;2023-05-02T10:21:35;17.40;99.90
15133;DHT22;7667;51.232;17.110;2023-05-02T10:24:04;17.80;99.90
15133;DHT22;7667;51.232;17.110;2023-05-02T10:26:33;18.00;99.90
15133;DHT22;7667;51.232;17.110;2023-05-02T10:29:01;17.80;99.90
15133;DHT22;7667;51.232;17.110;2023-05-02T10:31:33;17.40;99.90
15133;DHT22;7667;51.232;17.110;2023-05-02T10:34:02;17.60;99.90
15133;DHT22;7667;51.232;17.110;2023-05-02T10:36:31;17.90;99.90
15133;DHT22;7667;51.232;17.110;2023-05-02T10:39:00;18.40;99.90
15133;DHT22;7667;51.232;17.110;2023-05-02T10:41:30;18.70;99.90
15133;DHT22;7667;51.232;17.110;2023-05-02T10:44:00;18.90;99.90
15133;DHT22;7667;51.232;17.110;2023-05-02T10:46:29;18.80;99.90
15133;DHT22;7667;51.232;17.110;2023-05-02T10:49:08;18.20;99.90
15133;DHT22;7667;51.232;17.110;2023-05-02T10:51:39;18.30;99.90
15133;DHT22;7667;51.232;17.110;2023-05-02T10:59:34;18.40;99.90
15133;DHT22;7667;51.232;17.110;2023-05-02T11:05:05;18.50;99.90
15133;DHT22;7667;51.232;17.110;2023-05-02T11:07:34;18.10;99.90
15133;DHT22;7667;51.232;17.110;2023-05-02T11:12:49;19.00;99.90
15133;DHT22;7667;51.232;17.110;2023-05-02T11:20:28;19.30;99.90
15133;DHT22;7667;51.232;17.110;2023-05-02T11:25:45;20.00;99.90
15133;DHT22;7667;51.232;17.110;2023-05-02T11:28:38;20.20;99.90
15133;DHT22;7667;51.232;17.110;2023-05-02T11:34:00;20.10;99.90
15133;DHT22;7667;51.232;17.110;2023-05-02T11:36:32;19.90;99.90
15133;DHT22;7667;51.232;17.110;2023-05-02T11:39:01;20.10;99.90
15133;DHT22;7667;51.232;17.110;2023-05-02T11:41:43;19.40;99.90
15133;DHT22;7667;51.232;17.110;2023-05-02T11:44:13;18.50;99.90
15133;DHT22;7667;51.232;17.110;2023-05-02T11:46:42;18.90;99.90
15133;DHT22;7667;51.232;17.110;2023-05-02T11:49:09;19.10;99.90
15133;DHT22;7667;51.232;17.110;2023-05-02T11:51:41;19.00;99.90
15133;DHT22;7667;51.232;17.110;2023-05-02T11:54:08;18.60;99.90
15133;DHT22;7667;51.232;17.110;2023-05-02T11:56:44;18.90;99.90
15133;DHT22;7667;51.232;17.110;2023-05-02T11:59:13;19.10;99.90
15133;DHT22;7667;51.232;17.110;2023-05-02T12:01:47;19.60;99.90
15133;DHT22;7667;51.232;17.110;2023-05-02T12:04:16;19.50;99.40
15133;DHT22;7667;51.232;17.110;2023-05-02T12:06:55;19.30;99.90
15133;DHT22;7667;51.232;17.110;2023-05-02T12:09:23;19.40;99.90
15133;DHT22;7667;51.232;17.110;2023-05-02T12:11:54;19.80;99.90
15133;DHT22;7667;51.232;17.110;2023-05-02T12:14:31;20.00;99.40
15133;DHT22;7667;51.232;17.110;2023-05-02T12:17:00;20.10;99.90
15133;DHT22;7667;51.232;17.110;2023-05-02T12:19:29;20.10;99.90
15133;DHT22;7667;51.232;17.110;2023-05-02T12:21:57;19.90;99.90
15133;DHT22;7667;51.232;17.110;2023-05-02T12:24:24;19.20;99.90
15133;DHT22;7667;51.232;17.110;2023-05-02T12:27:11;18.80;99.90
15133;DHT22;7667;51.232;17.110;2023-05-02T12:29:41;18.20;99.90
15133;DHT22;7667;51.232;17.110;2023-05-02T12:32:11;18.20;99.90
15133;DHT22;7667;51.232;17.110;2023-05-02T12:34:39;17.60;99.90
15133;DHT22;7667;51.232;17.110;2023-05-02T12:37:08;16.80;99.90
15133;DHT22;7667;51.232;17.110;2023-05-02T12:39:36;15.90;99.90
15133;DHT22;7667;51.232;17.110;2023-05-02T12:42:12;15.10;99.90
15133;DHT22;7667;51.232;17.110;2023-05-02T12:44:44;14.00;99.90
15133;DHT22;7667;51.232;17.110;2023-05-02T12:47:15;12.90;99.90
15133;DHT22;7667;51.232;17.110;2023-05-02T12:49:53;12.30;99.90
15133;DHT22;7667;51.232;17.110;2023-05-02T12:52:53;12.10;99.90
15133;DHT22;7667;51.232;17.110;2023-05-02T12:55:25;11.90;99.90
15133;DHT22;7667;51.232;17.110;2023-05-02T12:58:04;11.70;99.90
15133;DHT22;7667;51.232;17.110;2023-05-02T13:00:39;11.70;99.90
15133;DHT22;7667;51.232;17.110;2023-05-02T13:03:08;11.60;99.90
15133;DHT22;7667;51.232;17.110;2023-05-02T13:05:36;11.90;99.90
15133;DHT22;7667;51.232;17.110;2023-05-02T13:08:04;12.00;99.90
15133;DHT22;7667;51.232;17.110;2023-05-02T13:10:32;12.20;99.90
15133;DHT22;7667;51.232;17.110;2023-05-02T13:12:59;12.60;99.90
15133;DHT22;7667;51.232;17.110;2023-05-02T13:15:27;12.90;99.90
15133;DHT22;7667;51.232;17.110;2023-05-02T13:17:55;13.30;99.90
15133;DHT22;7667;51.232;17.110;2023-05-02T13:20:23;13.30;99.90
15133;DHT22;7667;51.232;17.110;2023-05-02T13:22:50;13.50;99.90
15133;DHT22;7667;51.232;17.110;2023-05-02T13:25:18;13.70;99.90
15133;DHT22;7667;51.232;17.110;2023-05-02T13:27:45;14.00;99.90
15133;DHT22;7667;51.232;17.110;2023-05-02T13:30:13;14.50;99.90
15133;DHT22;7667;51.232;17.110;2023-05-02T13:32:40;15.10;99.90
15133;DHT22;7667;51.232;17.110;2023-05-02T13:35:08;15.60;99.90
15133;DHT22;7667;51.232;17.110;2023-05-02T13:37:40;15.80;99.90
15133;DHT22;7667;51.232;17.110;2023-05-02T13:40:08;16.00;99.90
15133;DHT22;7667;51.232;17.110;2023-05-02T13:42:36;16.50;99.90
15133;DHT22;7667;51.232;17.110;2023-05-02T13:45:04;16.80;99.90
15133;DHT22;7667;51.232;17.110;2023-05-02T13:47:33;16.80;99.90
15133;DHT22;7667;51.232;17.110;2023-05-02T13:50:01;17.40;99.90
15133;DHT22;7667;51.232;17.110;2023-05-02T13:52:29;17.80;99.90
15133;DHT22;7667;51.232;17.110;2023-05-02T13:54:57;17.80;99.90
15133;DHT22;7667;51.232;17.110;2023-05-02T13:57:24;18.30;99.90
15133;DHT22;7667;51.232;17.110;2023-05-02T13:59:52;19.10;99.90
15133;DHT22;7667;51.232;17.110;2023-05-02T14:02:20;19.50;99.90
15133;DHT22;7667;51.232;17.110;2023-05-02T14:04:48;20.30;99.90
15133;DHT22;7667;51.232;17.110;2023-05-02T14:07:16;21.00;99.90
15133;DHT22;7667;51.232;17.110;2023-05-02T14:09:43;22.00;99.90
15133;DHT22;7667;51.232;17.110;2023-05-02T14:12:10;22.60;99.90
15133;DHT22;7667;51.232;17.110;2023-05-02T14:14:38;23.00;99.90
15133;DHT22;7667;51.232;17.110;2023-05-02T14:17:06;23.50;99.90
15133;DHT22;7667;51.232;17.110;2023-05-02T14:19:33;23.40;99.90
15133;DHT22;7667;51.232;17.110;2023-05-02T14:22:00;24.10;98.30
15133;DHT22;7667;51.232;17.110;2023-05-02T14:24:28;24.70;95.90
15133;DHT22;7667;51.232;17.110;2023-05-02T14:26:55;24.70;92.60
15133;DHT22;7667;51.232;17.110;2023-05-02T14:29:24;24.90;92.30
15133;DHT22;7667;51.232;17.110;2023-05-02T14:31:52;24.70;91.60
15133;DHT22;7667;51.232;17.110;2023-05-02T14:34:19;24.60;91.40
15133;DHT22;7667;51.232;17.110;2023-05-02T14:36:48;24.20;90.20
15133;DHT22;7667;51.232;17.110;2023-05-02T14:39:15;24.70;90.40
15133;DHT22;7667;51.232;17.110;2023-05-02T14:41:43;25.00;89.20
15133;DHT22;7667;51.232;17.110;2023-05-02T14:44:10;23.10;84.60
15133;DHT22;7667;51.232;17.110;2023-05-02T14:46:37;21.30;92.10
15133;DHT22;7667;51.232;17.110;2023-05-02T14:49:06;21.30;93.70
15133;DHT22;7667;51.232;17.110;2023-05-02T14:51:35;21.40;93.10
15133;DHT22;7667;51.232;17.110;2023-05-02T14:54:04;20.70;93.70
15133;DHT22;7667;51.232;17.110;2023-05-02T14:56:33;19.80;95.90
15133;DHT22;7667;51.232;17.110;2023-05-02T14:59:00;19.90;96.50
15133;DHT22;7667;51.232;17.110;2023-05-02T15:01:28;19.50;98.00
15133;DHT22;7667;51.232;17.110;2023-05-02T15:03:56;19.00;99.40
15133;DHT22;7667;51.232;17.110;2023-05-02T15:06:34;18.60;98.60
15133;DHT22;7667;51.232;17.110;2023-05-02T15:09:08;18.20;99.90
15133;DHT22;7667;51.232;17.110;2023-05-02T15:11:37;18.20;99.90
15133;DHT22;7667;51.232;17.110;2023-05-02T15:14:05;17.70;99.90
15133;DHT22;7667;51.232;17.110;2023-05-02T15:16:33;17.40;99.90
15133;DHT22;7667;51.232;17.110;2023-05-02T15:19:03;17.20;99.90
15133;DHT22;7667;51.232;17.110;2023-05-02T15:21:30;17.20;99.90
15133;DHT22;7667;51.232;17.110;2023-05-02T15:23:58;17.10;99.90
15133;DHT22;7667;51.232;17.110;2023-05-02T15:26:26;16.80;99.90
15133;DHT22;7667;51.232;17.110;2023-05-02T15:28:53;16.70;99.90
15133;DHT22;7667;51.232;17.110;2023-05-02T15:31:22;16.60;99.90
15133;DHT22;7667;51.232;17.110;2023-05-02T15:33:50;16.60;99.90
15133;DHT22;7667;51.232;17.110;2023-05-02T15:36:17;16.70;99.90
15133;DHT22;7667;51.232;17.110;2023-05-02T15:38:45;16.50;99.90
15133;DHT22;7667;51.232;17.110;2023-05-02T15:41:12;16.50;99.90
15133;DHT22;7667;51.232;17.110;2023-05-02T15:43:40;16.40;99.90
15133;DHT22;7667;51.232;17.110;2023-05-02T15:46:07;16.50;99.90
15133;DHT22;7667;51.232;17.110;2023-05-02T15:48:35;16.60;99.90
15133;DHT22;7667;51.232;17.110;2023-05-02T15:51:02;16.60;99.90
15133;DHT22;7667;51.232;17.110;2023-05-02T15:53:31;16.70;99.90
15133;DHT22;7667;51.232;17.110;2023-05-02T15:55:59;16.70;99.90
15133;DHT22;7667;51.232;17.110;2023-05-02T15:58:26;16.60;99.90
15133;DHT22;7667;51.232;17.110;2023-05-02T16:00:54;16.40;99.90
15133;DHT22;7667;51.232;17.110;2023-05-02T16:03:22;16.50;99.90
15133;DHT22;7667;51.232;17.110;2023-05-02T16:05:51;16.40;99.90
15133;DHT22;7667;51.232;17.110;2023-05-02T16:08:20;16.30;99.90
15133;DHT22;7667;51.232;17.110;2023-05-02T16:10:47;16.20;99.90
15133;DHT22;7667;51.232;17.110;2023-05-02T16:13:15;16.20;99.90
15133;DHT22;7667;51.232;17.110;2023-05-02T16:15:43;16.30;99.90
15133;DHT22;7667;51.232;17.110;2023-05-02T16:18:10;16.40;99.90
15133;DHT22;7667;51.232;17.110;2023-05-02T16:20:38;16.60;99.90
15133;DHT22;7667;51.232;17.110;2023-05-02T16:23:05;16.70;99.90
15133;DHT22;7667;51.232;17.110;2023-05-02T16:25:33;16.80;99.90
15133;DHT22;7667;51.232;17.110;2023-05-02T16:28:01;16.80;99.90
15133;DHT22;7667;51.232;17.110;2023-05-02T16:30:28;16.80;99.90
15133;DHT22;7667;51.232;17.110;2023-05-02T16:32:56;16.80;99.90
15133;DHT22;7667;51.232;17.110;2023-05-02T16:35:24;16.60;99.90
15133;DHT22;7667;51.232;17.110;2023-05-02T16:37:51;16.50;99.90